KHVE/HVE METAR and TAF weather

Enter ICAO airport designator
Station Type Date Time Source
KHVE METAR 2021/05/12 05:35 UTC NOAA

KHVE 120535Z AUTO 34004KT 10SM CLR 13/M13 A3013 RMK AO2


Station Type Date Time Source
KHVE Decoded METAR 2021/05/12 05:35 UTC NOAA

Station name not available
May 12, 2021 - 01:35 AM EDT / 2021.05.12 0535 UTC
Wind: from the NNW (340 degrees) at 5 MPH (4 KT):0
Visibility: 10 mile(s):0
Sky conditions: clear
Temperature: 55 F (13 C)
Dew Point: 8 F (-13 C)
Relative Humidity: 15%
Pressure (altimeter): 30.13 in. Hg (1020 hPa)
ob: KHVE 120535Z AUTO 34004KT 10SM CLR 13/M13 A3013 RMK AO2
cycle: 5

Station Type Date Time Source
KHVE TAF UTC NOAA

Error!

Example: see airport list